createdAt,value
2023-04-04T00:00:50.588Z,65006.25
2023-04-04T00:05:56.799Z,64995.63
2023-04-04T00:11:01.530Z,64983.28
2023-04-04T00:16:06.196Z,64973.09
2023-04-04T00:21:11.709Z,64973.09
2023-04-04T00:26:17.582Z,64992.09
2023-04-04T00:31:22.942Z,64963.66
2023-04-04T00:36:28.506Z,64974.16
2023-04-04T00:41:32.540Z,64980.66
2023-04-04T00:46:36.702Z,64999.22
2023-04-04T00:51:42.237Z,65012.38
2023-04-04T00:56:46.527Z,65074.81
2023-04-04T01:01:51.044Z,65007.31
2023-04-04T01:06:56.960Z,64981.19
2023-04-04T01:12:02.433Z,64992.84
2023-04-04T01:17:09.311Z,65030.03
2023-04-04T01:22:16.007Z,64972.25
2023-04-04T01:27:22.533Z,64962.06
2023-04-04T01:32:47.219Z,64956.88
2023-04-04T01:38:03.076Z,64934.91
2023-04-04T01:43:10.014Z,64925.06
2023-04-04T01:48:17.380Z,64923.34
2023-04-04T01:53:25.809Z,64937.00
2023-04-04T01:58:31.402Z,64942.97
2023-04-04T02:03:35.907Z,64993.50
2023-04-04T02:08:40.186Z,64998.16
2023-04-04T02:13:47.924Z,65008.66
2023-04-04T02:18:55.439Z,64982.78
2023-04-04T02:24:00.042Z,64969.81
2023-04-04T02:29:06.512Z,64988.63
2023-04-04T02:34:10.404Z,64979.59
2023-04-04T02:39:14.737Z,64957.19
2023-04-04T02:44:20.455Z,64972.50
2023-04-04T02:49:29.793Z,64992.31
2023-04-04T02:54:34.836Z,64987.66
2023-04-04T02:59:42.080Z,65007.59
2023-04-04T03:04:47.740Z,65010.25
2023-04-04T03:09:54.816Z,64997.09
2023-04-04T03:15:03.839Z,64991.38
2023-04-04T03:20:15.647Z,64996.16
2023-04-04T03:25:24.718Z,64993.81
2023-04-04T03:30:33.760Z,64987.53
2023-04-04T03:35:42.453Z,64981.91
2023-04-04T03:40:49.846Z,64954.63
2023-04-04T03:46:03.231Z,64961.84
2023-04-04T03:51:10.332Z,64951.56
2023-04-04T03:56:16.856Z,64959.94
2023-04-04T04:01:24.975Z,64961.44
2023-04-04T04:06:32.592Z,64967.59
2023-04-04T04:11:39.764Z,64979.59
2023-04-04T04:16:48.679Z,65030.66
2023-04-04T04:22:01.160Z,65003.91
2023-04-04T04:27:09.922Z,65035.97
2023-04-04T04:32:20.516Z,65017.25
2023-04-04T04:37:32.715Z,65019.41
2023-04-04T04:42:45.682Z,65030.44
2023-04-04T04:47:56.537Z,65031.63
2023-04-04T04:53:03.336Z,65043.72
2023-04-04T04:58:11.463Z,65113.94
2023-04-04T05:03:25.461Z,65120.31
2023-04-04T05:08:33.078Z,65115.00
2023-04-04T05:13:46.972Z,65171.31
2023-04-04T05:18:56.675Z,65183.66
2023-04-04T05:24:02.991Z,65161.13
2023-04-04T05:29:09.162Z,65126.16
2023-04-04T05:34:22.499Z,65148.38
2023-04-04T05:39:31.486Z,65157.50
2023-04-04T05:44:43.069Z,65202.69
2023-04-04T05:49:52.615Z,65303.88
2023-04-04T05:55:00.052Z,65214.50
2023-04-04T06:00:12.738Z,65267.69
2023-04-04T06:05:20.472Z,65285.69
2023-04-04T06:10:27.187Z,65255.91
2023-04-04T06:15:36.933Z,65258.56
2023-04-04T06:20:45.755Z,65330.41
2023-04-04T06:25:52.525Z,65299.53
2023-04-04T06:31:00.327Z,65321.88
2023-04-04T06:36:12.593Z,65317.63
2023-04-04T06:41:19.969Z,65313.03
2023-04-04T06:46:28.198Z,65319.41
2023-04-04T06:51:36.451Z,65312.81
2023-04-04T06:56:43.258Z,65296.53
2023-04-04T07:01:48.301Z,65355.53
2023-04-04T07:06:53.868Z,65388.97
2023-04-04T07:12:00.338Z,65385.75
2023-04-04T07:17:10.860Z,65451.91
2023-04-04T07:22:25.013Z,65448.00
2023-04-04T07:27:31.873Z,65390.75
2023-04-04T07:32:38.441Z,65432.63
2023-04-04T07:37:45.194Z,65510.78
2023-04-04T07:42:52.291Z,65513.75
2023-04-04T07:47:59.748Z,65415.69
2023-04-04T07:53:07.119Z,65458.94
2023-04-04T07:58:14.299Z,65420.06
2023-04-04T08:03:20.312Z,65434.34
2023-04-04T08:08:27.272Z,65392.25
2023-04-04T08:13:33.362Z,65436.38
2023-04-04T08:18:41.201Z,65408.25
2023-04-04T08:23:50.012Z,65507.25
2023-04-04T08:28:57.519Z,65451.69
2023-04-04T08:34:03.336Z,65449.16
2023-04-04T08:39:11.770Z,65465.13
2023-04-04T08:44:20.518Z,65405.03
2023-04-04T08:49:28.035Z,65443.81
2023-04-04T08:54:37.468Z,65356.47
2023-04-04T08:59:44.829Z,65313.03
2023-04-04T09:05:05.033Z,65266.84
2023-04-04T09:10:13.983Z,65290.56
2023-04-04T09:15:20.719Z,65369.25
2023-04-04T09:20:41.206Z,65389.50
2023-04-04T09:31:05.273Z,65443.28
2023-04-04T09:36:13.425Z,65409.41
2023-04-04T09:41:21.800Z,65456.81
2023-04-04T09:46:29.018Z,65477.94
2023-04-04T09:51:39.484Z,65475.81
2023-04-04T09:56:47.777Z,65555.34
2023-04-04T10:01:57.275Z,65598.00
2023-04-04T10:07:04.920Z,65550.63
2023-04-04T10:12:17.770Z,65528.25
2023-04-04T10:17:26.278Z,65604.84
2023-04-04T10:22:34.354Z,65564.50
2023-04-04T10:27:40.933Z,65753.44
2023-04-04T10:33:05.403Z,65635.81
2023-04-04T10:38:13.070Z,65607.50
2023-04-04T10:43:29.390Z,65553.84
2023-04-04T10:48:37.417Z,65605.38
2023-04-04T10:53:46.028Z,65580.94
2023-04-04T10:59:09.848Z,65583.06
2023-04-04T11:04:21.964Z,65510.66
2023-04-04T11:09:50.763Z,65612.50
2023-04-04T11:15:09.928Z,65658.22
2023-04-04T11:20:19.368Z,65547.34
2023-04-04T11:25:35.311Z,65512.25
2023-04-04T11:30:51.934Z,65516.94
2023-04-04T11:36:02.039Z,65505.13
2023-04-04T11:41:08.059Z,65546.16
2023-04-04T11:46:20.380Z,65858.72
2023-04-04T11:51:32.109Z,65830.94
2023-04-04T11:56:39.705Z,65757.63
2023-04-04T12:01:48.449Z,65636.88
2023-04-04T12:06:57.213Z,65605.91
2023-04-04T12:12:05.629Z,65508.84
2023-04-04T12:17:15.931Z,65485.41
2023-04-04T12:22:22.991Z,65580.22
2023-04-04T12:27:30.446Z,65671.19
2023-04-04T12:32:36.929Z,65681.06
2023-04-04T12:37:41.865Z,65733.03
2023-04-04T12:42:52.422Z,65693.44
2023-04-04T12:48:00.486Z,65574.63
2023-04-04T12:53:27.378Z,65529.94
2023-04-04T12:58:38.159Z,65505.66
2023-04-04T13:03:47.278Z,65535.06
2023-04-04T13:08:55.458Z,65648.16
2023-04-04T13:14:04.481Z,65658.41
2023-04-04T13:19:10.426Z,65778.53
2023-04-04T13:24:16.320Z,66039.53
2023-04-04T13:29:25.141Z,65853.47
2023-04-04T13:34:34.630Z,65618.47
2023-04-04T13:39:40.168Z,65512.06
2023-04-04T13:44:45.342Z,65520.78
2023-04-04T13:49:51.649Z,65702.41
2023-04-04T13:54:58.040Z,65756.53
2023-04-04T14:00:02.973Z,65731.53
2023-04-04T14:05:15.260Z,65587.97
2023-04-04T14:10:19.574Z,65685.00
2023-04-04T14:15:25.849Z,65664.81
2023-04-04T14:20:34.688Z,65525.56
2023-04-04T14:25:40.198Z,65580.31
2023-04-04T14:30:44.564Z,65500.31
2023-04-04T14:35:51.122Z,65492.44
2023-04-04T14:40:55.462Z,65549.38
2023-04-04T14:46:00.412Z,65534.44
2023-04-04T14:51:09.810Z,65432.09
2023-04-04T14:56:14.917Z,65446.50
2023-04-04T15:01:22.508Z,65439.03
2023-04-04T15:06:32.057Z,65466.41
2023-04-04T15:11:38.315Z,65488.16
2023-04-04T15:16:43.492Z,65461.50
2023-04-04T15:21:49.593Z,65482.41
2023-04-04T15:26:55.751Z,65485.41
2023-04-04T15:32:00.415Z,65449.16
2023-04-04T15:37:06.019Z,65474.31
2023-04-04T15:42:10.102Z,65471.09
2023-04-04T15:47:14.128Z,65411.88
2023-04-04T15:52:19.438Z,65440.31
2023-04-04T15:57:23.528Z,65428.91
2023-04-04T16:02:27.559Z,65414.63
2023-04-04T16:07:33.194Z,65425.91
2023-04-04T16:12:39.855Z,65463.22
2023-04-04T16:17:43.910Z,65520.78
2023-04-04T16:22:49.283Z,65383.19
2023-04-04T16:27:53.282Z,65408.78
2023-04-04T16:32:57.199Z,65353.69
2023-04-04T16:38:02.519Z,65331.34
2023-04-04T16:43:06.634Z,65333.25
2023-04-04T16:48:10.759Z,65307.91
2023-04-04T16:53:16.303Z,65321.34
2023-04-04T16:58:20.590Z,65275.25
2023-04-04T17:03:24.530Z,65310.78
2023-04-04T17:08:29.898Z,65317.09
2023-04-04T17:13:34.049Z,65355.63
2023-04-04T17:18:38.054Z,65316.56
2023-04-04T17:23:43.429Z,65285.16
2023-04-04T17:28:47.323Z,65301.88
2023-04-04T17:33:51.477Z,65270.47
2023-04-04T17:38:56.850Z,65288.34
2023-04-04T17:44:01.028Z,65281.97
2023-04-04T17:49:05.153Z,65275.16
2023-04-04T17:54:10.624Z,65264.94
2023-04-04T17:59:14.917Z,65283.88
2023-04-04T18:04:19.457Z,65244.59
2023-04-04T18:09:25.436Z,65228.13
2023-04-04T18:14:29.517Z,65232.47
2023-04-04T18:19:33.548Z,65218.13
2023-04-04T18:24:38.905Z,65230.47
2023-04-04T18:29:43.146Z,65216.63
2023-04-04T18:34:47.308Z,65203.88
2023-04-04T18:39:52.822Z,65215.13
2023-04-04T18:45:01.387Z,65206.00
2023-04-04T18:50:06.048Z,65191.53
2023-04-04T18:55:12.269Z,65177.38
2023-04-04T19:00:17.148Z,65121.50
2023-04-04T19:05:24.358Z,65134.66
2023-04-04T19:10:30.365Z,65151.34
2023-04-04T19:15:34.883Z,65169.84
2023-04-04T19:20:42.063Z,65171.13
2023-04-04T19:25:47.446Z,65182.50
2023-04-04T19:30:54.358Z,65168.69
2023-04-04T19:36:01.030Z,65176.75
2023-04-04T19:41:09.682Z,65170.91
2023-04-04T19:46:15.377Z,65174.00
2023-04-04T19:51:52.646Z,65172.28
2023-04-04T19:57:03.352Z,65170.28
2023-04-04T20:02:08.306Z,65170.91
2023-04-04T20:07:12.422Z,65180.28
2023-04-04T20:12:19.489Z,65167.09
2023-04-04T20:17:23.461Z,65178.56
2023-04-04T20:22:27.433Z,65179.41
2023-04-04T20:27:33.344Z,65172.59
2023-04-04T20:32:37.291Z,65187.38
2023-04-04T20:37:41.346Z,65161.34
2023-04-04T20:42:47.869Z,65170.78
2023-04-04T20:47:53.842Z,65167.50
2023-04-04T20:52:59.413Z,65169.97
2023-04-04T20:58:10.779Z,65144.97
2023-04-04T21:03:30.266Z,65136.25
2023-04-04T21:08:48.000Z,65140.50
2023-04-04T21:13:53.359Z,65140.50
2023-04-04T21:18:59.918Z,65118.41
2023-04-04T21:24:06.940Z,65138.38
2023-04-04T21:29:21.865Z,65126.91
2023-04-04T21:34:27.918Z,65132.22
2023-04-04T21:39:32.430Z,65127.31
2023-04-04T21:44:38.548Z,65148.03
2023-04-04T21:49:42.593Z,65133.19
2023-04-04T21:54:46.522Z,65132.75
2023-04-04T21:59:51.858Z,65152.00
2023-04-04T22:04:57.299Z,65134.56
2023-04-04T22:10:04.362Z,65136.25
2023-04-04T22:15:11.702Z,65131.06
2023-04-04T22:20:15.891Z,65138.81
2023-04-04T22:25:19.952Z,65115.63
2023-04-04T22:30:26.040Z,65101.81
2023-04-04T22:35:30.410Z,65102.47
2023-04-04T22:40:35.702Z,65088.66
2023-04-04T22:45:41.048Z,65095.34
2023-04-04T22:50:49.762Z,65080.16
2023-04-04T22:55:58.396Z,65090.97
2023-04-04T23:01:03.860Z,65149.53
2023-04-04T23:06:08.081Z,65091.09
2023-04-04T23:11:12.024Z,65065.06
2023-04-04T23:16:17.731Z,65046.56
2023-04-04T23:21:21.886Z,65023.88
2023-04-04T23:26:27.296Z,65010.47
2023-04-04T23:31:32.735Z,64991.78
2023-04-04T23:36:36.702Z,64976.53
2023-04-04T23:41:40.841Z,64973.09
2023-04-04T23:46:46.701Z,64965.25
2023-04-04T23:51:51.033Z,64971.63
2023-04-04T23:56:54.994Z,64965.03
